createdAt,value
2024-02-08T13:13:58.993Z,50.00
2024-02-08T13:14:57.991Z,50.00
2024-02-08T13:15:57.988Z,50.00
2024-02-08T13:16:57.968Z,50.00
2024-02-08T13:17:58.097Z,50.00
2024-02-08T13:18:58.007Z,29.97
2024-02-08T13:19:58.150Z,0.00
2024-02-08T13:20:57.942Z,0.00
2024-02-08T13:21:58.111Z,0.00
2024-02-08T13:22:57.981Z,0.00
2024-02-08T13:23:57.967Z,0.00
2024-02-08T13:24:57.997Z,0.00
2024-02-08T13:25:58.862Z,0.00
2024-02-08T13:26:57.944Z,0.00
2024-02-08T13:27:58.001Z,0.00
2024-02-08T13:28:57.981Z,0.00
2024-02-08T13:29:58.007Z,0.00
2024-02-08T13:30:58.049Z,0.00
2024-02-08T13:31:57.985Z,0.00
2024-02-08T13:32:58.069Z,0.00
2024-02-08T13:33:58.194Z,0.00
2024-02-08T13:34:58.100Z,0.00
2024-02-08T13:35:58.082Z,0.00
2024-02-08T13:36:58.038Z,0.00
2024-02-08T13:37:58.514Z,0.00
2024-02-08T13:38:58.008Z,1.86
2024-02-08T13:40:00.382Z,11.80
2024-02-08T13:40:58.157Z,24.23
2024-02-08T13:41:57.988Z,38.30
2024-02-08T13:42:58.617Z,49.77
2024-02-08T13:43:58.119Z,50.00
2024-02-08T13:44:57.993Z,50.35
2024-02-08T13:45:58.106Z,50.00
2024-02-08T13:46:58.060Z,50.17
2024-02-08T13:47:59.558Z,50.86
2024-02-08T13:48:58.247Z,50.00
2024-02-08T13:49:58.254Z,50.35
2024-02-08T13:50:58.196Z,50.00
2024-02-08T13:51:58.293Z,50.43
2024-02-08T13:52:58.308Z,50.00
2024-02-08T13:53:58.367Z,50.52
2024-02-08T13:54:58.323Z,50.99
2024-02-08T13:55:58.432Z,50.08
2024-02-08T13:56:58.359Z,50.60
2024-02-08T13:57:58.592Z,50.47
2024-02-08T13:58:58.568Z,50.14
2024-02-08T13:59:58.527Z,51.35
2024-02-08T14:00:58.764Z,50.00
2024-02-08T14:01:58.681Z,50.21
2024-02-08T14:02:58.668Z,51.16
2024-02-08T14:03:58.860Z,50.00
2024-02-08T14:04:58.847Z,50.14
2024-02-08T14:05:58.871Z,50.00
2024-02-08T14:06:58.827Z,51.26
2024-02-08T14:07:58.860Z,50.00
2024-02-08T14:08:58.870Z,49.98
2024-02-08T14:09:58.908Z,50.00
2024-02-08T14:10:58.928Z,50.00
2024-02-08T14:11:58.962Z,53.08
2024-02-08T14:12:59.079Z,53.07
2024-02-08T14:13:59.103Z,50.25
2024-02-08T14:14:59.150Z,50.06
2024-02-08T14:15:59.151Z,50.00
2024-02-08T14:16:59.207Z,50.00
2024-02-08T14:17:59.289Z,51.28
2024-02-08T14:18:59.360Z,52.62
2024-02-08T14:19:59.602Z,53.10
2024-02-08T14:20:59.681Z,50.00
2024-02-08T14:21:59.414Z,50.13
2024-02-08T14:22:59.420Z,51.69
2024-02-08T14:23:59.486Z,50.28
2024-02-08T14:25:00.059Z,50.00
2024-02-08T14:25:59.581Z,51.47
2024-02-08T14:26:59.610Z,50.08
2024-02-08T14:27:59.706Z,50.27
2024-02-08T14:28:59.681Z,50.00
2024-02-08T14:29:59.726Z,51.16
2024-02-08T14:30:59.864Z,51.15
2024-02-08T14:31:59.849Z,50.00
2024-02-08T14:32:59.965Z,51.70
2024-02-08T14:33:59.978Z,50.44
2024-02-08T14:35:00.342Z,50.00
2024-02-08T14:36:00.054Z,50.00
2024-02-08T14:37:00.109Z,50.68
2024-02-08T14:38:00.103Z,50.56
2024-02-08T14:39:00.135Z,51.05
2024-02-08T14:40:00.269Z,50.00
2024-02-08T14:41:00.220Z,50.00
2024-02-08T14:42:00.345Z,50.54
2024-02-08T14:43:00.314Z,50.58
2024-02-08T14:44:00.305Z,50.07
2024-02-08T14:45:00.309Z,50.10
2024-02-08T14:46:00.455Z,50.00
2024-02-08T14:47:00.424Z,49.83
2024-02-08T14:48:00.473Z,51.18
2024-02-08T14:49:00.562Z,50.53
2024-02-08T14:50:01.977Z,50.00
2024-02-08T14:51:00.541Z,50.30
2024-02-08T14:52:00.596Z,51.38
2024-02-08T14:53:00.595Z,50.00
2024-02-08T14:54:00.682Z,50.28
2024-02-08T14:55:00.821Z,50.53
2024-02-08T14:56:00.790Z,50.58
2024-02-08T14:57:00.787Z,50.00
2024-02-08T14:58:01.501Z,56.77
2024-02-08T14:59:00.835Z,52.34
2024-02-08T15:00:00.896Z,52.49
2024-02-08T15:01:02.148Z,52.61
2024-02-08T15:02:01.083Z,50.97
2024-02-08T15:03:01.016Z,49.29
2024-02-08T15:04:01.118Z,51.60
2024-02-08T15:05:01.138Z,50.64
2024-02-08T15:06:01.808Z,50.00
2024-02-08T15:07:01.237Z,50.00
2024-02-08T15:08:01.178Z,49.86
2024-02-08T15:09:01.227Z,50.00
2024-02-08T15:10:01.315Z,50.74
2024-02-08T15:11:01.358Z,50.00
2024-02-08T15:12:01.392Z,53.16
2024-02-08T15:13:01.400Z,50.18
2024-02-08T15:14:01.461Z,51.21
2024-02-08T15:15:01.485Z,50.00
2024-02-08T15:16:01.536Z,51.03
2024-02-08T15:17:01.590Z,50.04
2024-02-08T15:18:01.657Z,50.69
2024-02-08T15:19:01.861Z,50.44
2024-02-08T15:20:01.683Z,50.35
2024-02-08T15:21:01.730Z,52.20
2024-02-08T15:22:01.834Z,53.86
2024-02-08T15:23:01.781Z,56.30
2024-02-08T15:24:01.837Z,54.63
2024-02-08T15:25:01.941Z,53.96
2024-02-08T15:26:01.908Z,50.77
2024-02-08T15:27:01.948Z,52.31
2024-02-08T15:28:01.979Z,50.91
2024-02-08T15:29:02.024Z,50.00
2024-02-08T15:30:02.056Z,49.92
2024-02-08T15:31:02.154Z,50.00
2024-02-08T15:32:02.146Z,53.44
2024-02-08T15:33:02.265Z,50.00
2024-02-08T15:34:02.412Z,50.00
2024-02-08T15:35:02.372Z,52.81
2024-02-08T15:36:02.323Z,50.00
2024-02-08T15:37:02.453Z,50.00
2024-02-08T15:38:02.435Z,53.17
2024-02-08T15:39:02.468Z,50.48
2024-02-08T15:40:02.622Z,50.97
2024-02-08T15:41:02.518Z,50.20
2024-02-08T15:42:02.710Z,50.00
2024-02-08T15:43:02.589Z,50.85
2024-02-08T15:44:02.594Z,50.30
2024-02-08T15:45:02.663Z,52.61
2024-02-08T15:46:02.696Z,51.17
2024-02-08T15:47:02.678Z,50.00
2024-02-08T15:48:03.710Z,52.13
2024-02-08T15:49:02.869Z,52.42
2024-02-08T15:50:02.851Z,51.33
2024-02-08T15:51:02.817Z,50.27
2024-02-08T15:52:02.901Z,52.06
2024-02-08T15:53:02.940Z,56.72
2024-02-08T15:54:02.944Z,51.45
2024-02-08T15:55:03.039Z,53.77
2024-02-08T15:56:03.055Z,50.00
2024-02-08T15:57:03.044Z,50.00
2024-02-08T15:58:03.088Z,49.63
2024-02-08T15:59:03.277Z,50.82
2024-02-08T16:00:03.179Z,51.20
2024-02-08T16:01:03.308Z,51.75
2024-02-08T16:02:03.343Z,52.28
2024-02-08T16:03:03.596Z,56.50
2024-02-08T16:04:03.310Z,50.00
2024-02-08T16:05:03.424Z,50.00
2024-02-08T16:06:03.406Z,51.55
2024-02-08T16:07:03.483Z,59.16
2024-02-08T16:08:03.486Z,54.04
2024-02-08T16:09:03.665Z,50.14
2024-02-08T16:10:03.598Z,50.70
2024-02-08T16:11:03.548Z,50.00
2024-02-08T16:12:03.607Z,50.00
2024-02-08T16:13:03.638Z,51.90
2024-02-08T16:14:03.676Z,53.59
2024-02-08T16:15:03.689Z,50.24
2024-02-08T16:16:03.729Z,50.00
2024-02-08T16:17:03.747Z,54.66
2024-02-08T16:18:03.824Z,51.23
2024-02-08T16:19:03.910Z,51.00
2024-02-08T16:20:04.032Z,52.06
2024-02-08T16:21:03.920Z,52.05
2024-02-08T16:22:03.995Z,50.48
2024-02-08T16:23:04.089Z,53.41
2024-02-08T16:24:04.045Z,50.00
2024-02-08T16:25:04.581Z,50.44
2024-02-08T16:26:04.165Z,50.44
2024-02-08T16:27:04.216Z,49.92
2024-02-08T16:28:04.338Z,51.47
2024-02-08T16:29:04.279Z,63.02
2024-02-08T16:30:04.319Z,64.37
2024-02-08T16:31:04.495Z,51.53
2024-02-08T16:32:04.419Z,50.48
2024-02-08T16:33:04.601Z,50.00
2024-02-08T16:34:04.620Z,53.37
2024-02-08T16:35:04.689Z,54.37
2024-02-08T16:36:04.686Z,55.40
2024-02-08T16:37:04.853Z,51.36
2024-02-08T16:38:04.748Z,52.37
2024-02-08T16:39:04.816Z,50.30
2024-02-08T16:40:04.826Z,52.22
2024-02-08T16:41:04.881Z,51.08
2024-02-08T16:42:04.942Z,50.90
2024-02-08T16:43:05.005Z,51.63
2024-02-08T16:44:05.091Z,50.00
2024-02-08T16:45:05.090Z,53.43
2024-02-08T16:46:05.107Z,50.68
2024-02-08T16:47:05.120Z,52.77
2024-02-08T16:48:05.205Z,53.74
2024-02-08T16:49:05.389Z,54.09
2024-02-08T16:50:05.290Z,51.33
2024-02-08T16:51:05.370Z,50.00
2024-02-08T16:52:06.053Z,51.41
2024-02-08T16:53:05.465Z,50.42
2024-02-08T16:54:05.418Z,51.77
2024-02-08T16:55:05.519Z,50.00
2024-02-08T16:56:08.577Z,51.48
2024-02-08T16:57:05.502Z,50.00
2024-02-08T16:58:05.536Z,51.07
2024-02-08T16:59:05.522Z,55.99
2024-02-08T17:00:05.508Z,62.45
2024-02-08T17:01:05.578Z,63.94
2024-02-08T17:02:05.877Z,67.72
2024-02-08T17:03:05.933Z,56.61
2024-02-08T17:04:05.552Z,50.10
2024-02-08T17:05:05.546Z,50.77
2024-02-08T17:06:05.496Z,50.00
2024-02-08T17:07:05.625Z,50.66
2024-02-08T17:08:05.594Z,58.89
2024-02-08T17:09:05.527Z,58.19
2024-02-08T17:10:06.988Z,50.56
2024-02-08T17:11:05.524Z,50.37
2024-02-08T17:12:05.532Z,50.29
2024-02-08T17:13:05.566Z,52.73
2024-02-08T17:14:05.512Z,52.29
2024-02-08T17:15:05.504Z,62.42
2024-02-08T17:16:05.565Z,74.06
2024-02-08T17:17:05.565Z,73.58
2024-02-08T17:18:05.532Z,66.97
2024-02-08T17:19:05.617Z,51.16
2024-02-08T17:20:05.679Z,50.47
2024-02-08T17:21:05.540Z,50.00
2024-02-08T17:22:05.541Z,50.20
2024-02-08T17:23:05.542Z,50.00
2024-02-08T17:24:07.597Z,51.06
2024-02-08T17:25:05.582Z,50.79
2024-02-08T17:26:05.559Z,50.94
2024-02-08T17:27:05.562Z,50.54
2024-02-08T17:28:05.603Z,50.00
2024-02-08T17:29:05.594Z,50.00
2024-02-08T17:30:05.670Z,52.46
2024-02-08T17:31:06.671Z,50.86
2024-02-08T17:32:05.716Z,50.42
2024-02-08T17:33:05.797Z,51.23
2024-02-08T17:34:05.860Z,50.67
2024-02-08T17:35:05.925Z,55.13
2024-02-08T17:36:05.960Z,55.29
2024-02-08T17:37:05.960Z,49.71
2024-02-08T17:38:05.899Z,49.41
2024-02-08T17:39:05.972Z,50.86
2024-02-08T17:40:06.000Z,51.80
2024-02-08T17:41:06.072Z,50.00
2024-02-08T17:42:06.097Z,56.09
2024-02-08T17:43:06.610Z,56.57
2024-02-08T17:44:06.199Z,63.08
2024-02-08T17:45:06.202Z,60.92
2024-02-08T17:46:06.278Z,61.65
2024-02-08T17:47:06.314Z,56.88
2024-02-08T17:48:06.460Z,60.32
2024-02-08T17:49:14.538Z,50.00
2024-02-08T17:50:14.570Z,50.00
2024-02-08T17:51:14.474Z,50.00
2024-02-08T17:52:14.622Z,50.00
2024-02-08T17:53:14.733Z,50.00
2024-02-08T17:54:14.808Z,51.96
2024-02-08T17:55:14.804Z,50.67
2024-02-08T17:56:14.779Z,52.51
2024-02-08T17:57:14.781Z,50.00
2024-02-08T17:58:14.842Z,50.11
2024-02-08T17:59:14.774Z,50.00
2024-02-08T18:00:14.776Z,50.00
2024-02-08T18:01:14.827Z,54.14
2024-02-08T18:02:14.793Z,52.43
2024-02-08T18:03:14.782Z,51.83
2024-02-08T18:04:14.851Z,53.34
2024-02-08T18:05:14.884Z,53.28
2024-02-08T18:06:14.830Z,55.92
2024-02-08T18:07:14.899Z,59.29
2024-02-08T18:08:14.883Z,59.60
2024-02-08T18:09:14.810Z,66.36
2024-02-08T18:10:14.855Z,70.00
2024-02-08T18:11:14.794Z,69.88
2024-02-08T18:12:14.911Z,73.26
2024-02-08T18:13:14.897Z,60.31
2024-02-08T18:14:14.801Z,52.20
2024-02-08T18:15:14.800Z,52.31
2024-02-08T18:16:14.841Z,50.00
2024-02-08T18:17:14.854Z,53.55
2024-02-08T18:18:14.900Z,51.11
2024-02-08T18:19:14.922Z,52.04
2024-02-08T18:20:14.830Z,61.26
2024-02-08T18:21:15.264Z,58.46
2024-02-08T18:22:14.861Z,59.63
2024-02-08T18:23:14.805Z,53.35
2024-02-08T18:24:14.826Z,57.23
2024-02-08T18:25:14.840Z,59.40
2024-02-08T18:26:14.864Z,63.21
2024-02-08T18:27:14.846Z,51.15
2024-02-08T18:28:14.912Z,49.93
2024-02-08T18:29:14.845Z,53.87
2024-02-08T18:30:14.832Z,51.73
2024-02-08T18:31:14.895Z,51.11
2024-02-08T18:32:14.831Z,51.91
2024-02-08T18:33:15.013Z,52.74
2024-02-08T18:34:14.892Z,57.69
2024-02-08T18:35:15.066Z,66.31
2024-02-08T18:36:14.861Z,69.69
2024-02-08T18:37:14.848Z,72.39
2024-02-08T18:38:14.903Z,66.50
2024-02-08T18:39:14.955Z,53.86
2024-02-08T18:40:15.051Z,52.06
2024-02-08T18:41:15.064Z,51.12
2024-02-08T18:42:15.126Z,50.77
2024-02-08T18:43:15.250Z,52.58
2024-02-08T18:44:15.224Z,50.00
2024-02-08T18:45:15.284Z,52.31
2024-02-08T18:46:15.403Z,57.85
2024-02-08T18:47:15.437Z,65.55
2024-02-08T18:48:15.627Z,64.57
2024-02-08T18:49:15.544Z,63.05
2024-02-08T18:50:15.700Z,63.25
2024-02-08T18:51:15.615Z,50.00
2024-02-08T18:52:15.726Z,51.05
2024-02-08T18:53:15.741Z,51.34
2024-02-08T18:54:15.750Z,51.32
2024-02-08T18:55:15.788Z,50.00
2024-02-08T18:56:15.793Z,53.76
2024-02-08T18:57:15.805Z,54.42
2024-02-08T18:58:15.958Z,54.45
2024-02-08T18:59:15.970Z,51.80
2024-02-08T19:00:15.994Z,51.24
2024-02-08T19:01:16.152Z,50.00
2024-02-08T19:02:16.104Z,50.09
2024-02-08T19:03:16.225Z,51.08
2024-02-08T19:04:16.195Z,52.78
2024-02-08T19:05:16.373Z,55.99
2024-02-08T19:06:16.913Z,60.29
2024-02-08T19:07:16.322Z,58.69
2024-02-08T19:08:16.291Z,55.45
2024-02-08T19:09:16.390Z,50.60
2024-02-08T19:10:16.380Z,50.00
2024-02-08T19:11:16.415Z,51.53
2024-02-08T19:12:16.482Z,53.92
2024-02-08T19:13:16.551Z,52.89
2024-02-08T19:14:16.598Z,52.30
2024-02-08T19:15:16.601Z,55.40
2024-02-08T19:16:17.117Z,42.40
2024-02-08T19:17:16.795Z,93.36
2024-02-08T19:18:16.821Z,84.56
2024-02-08T19:19:16.878Z,80.88
2024-02-08T19:20:16.813Z,79.96
2024-02-08T19:21:16.807Z,74.60
2024-02-08T19:22:16.918Z,73.71
2024-02-08T19:23:16.842Z,71.40
2024-02-08T19:24:16.902Z,62.63
2024-02-08T19:25:16.958Z,62.46
2024-02-08T19:26:16.917Z,66.37
2024-02-08T19:27:16.958Z,54.91
2024-02-08T19:28:17.071Z,52.98
2024-02-08T19:29:17.053Z,57.36
2024-02-08T19:30:17.085Z,64.44
2024-02-08T19:31:17.166Z,59.46
2024-02-08T19:32:17.159Z,57.31
2024-02-08T19:33:17.224Z,63.05
2024-02-08T19:34:17.327Z,67.20
2024-02-08T19:35:17.355Z,63.32
2024-02-08T19:36:17.316Z,60.64
2024-02-08T19:37:17.394Z,61.84
2024-02-08T19:38:17.390Z,59.64
2024-02-08T19:39:17.354Z,58.56
2024-02-08T19:40:17.404Z,59.07
2024-02-08T19:41:17.433Z,58.90
2024-02-08T19:42:17.467Z,59.71
2024-02-08T19:43:17.593Z,62.78
2024-02-08T19:44:17.530Z,62.63
2024-02-08T19:45:18.033Z,66.87
2024-02-08T19:46:17.621Z,65.52
2024-02-08T19:47:17.699Z,60.94
2024-02-08T19:48:17.846Z,57.00
2024-02-08T19:49:17.825Z,56.32
2024-02-08T19:50:17.891Z,62.37
2024-02-08T19:51:17.790Z,55.06
2024-02-08T19:52:18.048Z,53.69
2024-02-08T19:53:17.821Z,51.10
2024-02-08T19:54:17.898Z,50.00
2024-02-08T19:55:17.964Z,38.60
2024-02-08T19:56:17.974Z,53.58
2024-02-08T19:57:17.992Z,86.25
2024-02-08T19:58:18.128Z,57.66
2024-02-08T19:59:18.306Z,52.61
2024-02-08T20:00:18.114Z,99.08
2024-02-08T20:01:18.242Z,126.18
2024-02-08T20:02:18.274Z,130.68
2024-02-08T20:03:18.208Z,124.28
2024-02-08T20:04:18.257Z,110.22
2024-02-08T20:05:18.413Z,92.32
2024-02-08T20:06:18.379Z,112.56
2024-02-08T20:07:18.388Z,126.34
2024-02-08T20:08:18.481Z,112.84
2024-02-08T20:09:18.517Z,101.04
2024-02-08T20:10:18.542Z,97.03
2024-02-08T20:11:18.632Z,97.90
2024-02-08T20:12:18.658Z,107.93
2024-02-08T20:13:18.749Z,122.58
2024-02-08T20:14:18.691Z,108.33
2024-02-08T20:15:18.850Z,92.64
2024-02-08T20:16:18.771Z,100.44
2024-02-08T20:17:18.817Z,79.70
2024-02-08T20:18:19.475Z,70.53
2024-02-08T20:19:18.980Z,98.66
2024-02-08T20:20:18.911Z,116.40
2024-02-08T20:21:18.941Z,113.30
2024-02-08T20:22:19.060Z,98.93
2024-02-08T20:23:18.998Z,114.33
2024-02-08T20:24:19.053Z,103.47
2024-02-08T20:25:19.087Z,107.86
2024-02-08T20:26:19.126Z,85.61
2024-02-08T20:27:19.263Z,94.23
2024-02-08T20:28:19.240Z,145.58
2024-02-08T20:29:19.215Z,133.09
2024-02-08T20:30:19.244Z,110.77
2024-02-08T20:31:19.360Z,119.87
2024-02-08T20:32:19.327Z,120.77
2024-02-08T20:33:19.427Z,126.29
2024-02-08T20:34:19.482Z,117.79
2024-02-08T20:35:19.489Z,118.17
2024-02-08T20:36:19.505Z,122.78
2024-02-08T20:37:19.630Z,131.09
2024-02-08T20:38:19.718Z,99.81
2024-02-08T20:39:19.892Z,98.80
2024-02-08T20:40:19.636Z,107.27
2024-02-08T20:41:19.667Z,97.79
2024-02-08T20:42:19.690Z,91.26
2024-02-08T20:43:19.792Z,82.88
2024-02-08T20:44:20.828Z,89.26
2024-02-08T20:45:19.882Z,99.34
2024-02-08T20:46:19.910Z,114.17
2024-02-08T20:47:19.881Z,92.97
2024-02-08T20:48:19.931Z,115.32
2024-02-08T20:49:20.031Z,104.91
2024-02-08T20:50:19.989Z,100.91
2024-02-08T20:51:20.061Z,93.50
2024-02-08T20:52:20.112Z,111.40
2024-02-08T20:53:20.106Z,101.01
2024-02-08T20:54:20.197Z,101.17
2024-02-08T20:55:20.214Z,98.53
2024-02-08T20:56:20.239Z,107.36
2024-02-08T20:57:20.286Z,101.39
2024-02-08T20:58:20.346Z,101.18
2024-02-08T20:59:20.355Z,102.54
2024-02-08T21:00:20.429Z,97.21
2024-02-08T21:01:20.530Z,85.82
2024-02-08T21:02:20.476Z,89.19
2024-02-08T21:03:20.540Z,84.30
2024-02-08T21:04:20.559Z,103.44
2024-02-08T21:05:20.632Z,98.94
2024-02-08T21:06:20.636Z,92.82
2024-02-08T21:07:20.710Z,95.07
2024-02-08T21:08:20.691Z,112.25
2024-02-08T21:09:20.769Z,124.32
2024-02-08T21:10:20.845Z,128.09
2024-02-08T21:11:20.841Z,112.42
2024-02-08T21:12:20.839Z,103.12
2024-02-08T21:13:21.131Z,103.43
2024-02-08T21:14:20.980Z,115.77
2024-02-08T21:15:20.897Z,109.75
2024-02-08T21:16:21.383Z,93.19
2024-02-08T21:17:21.003Z,102.13
2024-02-08T21:18:21.080Z,96.89
2024-02-08T21:19:21.027Z,118.57
2024-02-08T21:20:21.312Z,108.02
2024-02-08T21:21:21.111Z,97.12
2024-02-08T21:22:21.189Z,104.40
2024-02-08T21:23:21.269Z,100.22
2024-02-08T21:24:21.241Z,89.03
2024-02-08T21:25:21.558Z,115.89
2024-02-08T21:26:21.966Z,111.03
2024-02-08T21:27:21.513Z,85.15
2024-02-08T21:28:21.538Z,90.63
2024-02-08T21:29:21.441Z,113.02
2024-02-08T21:30:21.478Z,83.62
2024-02-08T21:31:21.557Z,76.37
2024-02-08T21:32:21.534Z,69.01
2024-02-08T21:33:21.700Z,73.97
2024-02-08T21:34:21.721Z,73.36
2024-02-08T21:35:21.640Z,69.84
2024-02-08T21:36:21.682Z,72.97
2024-02-08T21:37:21.750Z,84.42
2024-02-08T21:38:21.768Z,112.50
2024-02-08T21:39:21.806Z,78.45
2024-02-08T21:40:21.881Z,87.55
2024-02-08T21:41:21.871Z,90.88
2024-02-08T21:42:21.898Z,87.12
2024-02-08T21:43:21.999Z,78.34
2024-02-08T21:44:22.095Z,68.97
2024-02-08T21:45:22.011Z,79.52
2024-02-08T21:46:22.226Z,65.94
2024-02-08T21:47:22.073Z,79.42
2024-02-08T21:48:22.152Z,61.64
2024-02-08T21:49:24.005Z,58.97
2024-02-08T21:50:22.212Z,67.10
2024-02-08T21:51:22.272Z,63.28
2024-02-08T21:52:22.315Z,75.50
2024-02-08T21:53:22.346Z,76.05
2024-02-08T21:54:22.386Z,77.68
2024-02-08T21:55:22.481Z,52.74
2024-02-08T21:56:22.511Z,54.09
2024-02-08T21:57:22.496Z,69.17
2024-02-08T21:58:22.551Z,68.45
2024-02-08T21:59:22.574Z,82.02
2024-02-08T22:00:22.598Z,72.37
2024-02-08T22:01:38.107Z,80.70
2024-02-08T22:02:22.694Z,81.19
2024-02-08T22:03:22.622Z,75.07
2024-02-08T22:04:22.650Z,79.10
2024-02-08T22:05:22.810Z,83.46
2024-02-08T22:06:22.792Z,77.55
2024-02-08T22:07:22.748Z,78.31
2024-02-08T22:08:22.643Z,65.78
2024-02-08T22:09:22.635Z,75.20
2024-02-08T22:10:22.692Z,67.68
2024-02-08T22:11:22.634Z,63.26
2024-02-08T22:12:22.655Z,82.78
2024-02-08T22:13:22.710Z,68.82
2024-02-08T22:14:22.662Z,58.52
2024-02-08T22:15:22.643Z,63.46
2024-02-08T22:16:22.676Z,63.04
2024-02-08T22:17:22.670Z,50.00
2024-02-08T22:18:22.752Z,61.44
2024-02-08T22:19:22.734Z,84.37
2024-02-08T22:20:22.637Z,57.57
2024-02-08T22:21:22.651Z,73.08
2024-02-08T22:22:22.697Z,68.59
2024-02-08T22:23:22.666Z,55.08
2024-02-08T22:24:22.661Z,56.54
2024-02-08T22:25:22.775Z,70.95
2024-02-08T22:26:22.685Z,86.12
2024-02-08T22:27:22.684Z,83.75
2024-02-08T22:28:22.833Z,62.31
2024-02-08T22:29:22.848Z,63.38
2024-02-08T22:30:22.671Z,61.64
2024-02-08T22:31:22.756Z,61.24
2024-02-08T22:32:22.668Z,71.06
2024-02-08T22:33:22.704Z,52.78
2024-02-08T22:34:22.803Z,56.39
2024-02-08T22:35:22.820Z,72.28
2024-02-08T22:36:22.696Z,80.58
2024-02-08T22:37:22.707Z,85.01
2024-02-08T22:38:22.705Z,70.03
2024-02-08T22:39:22.707Z,58.06
2024-02-08T22:40:22.733Z,61.40
2024-02-08T22:41:22.738Z,82.04
2024-02-08T22:42:22.689Z,83.92
2024-02-08T22:43:22.755Z,61.17
2024-02-08T22:44:22.717Z,54.67
2024-02-08T22:45:22.745Z,50.14
2024-02-08T22:46:22.768Z,66.50
2024-02-08T22:47:22.739Z,68.64
2024-02-08T22:48:22.708Z,73.96
2024-02-08T22:49:22.815Z,59.08
2024-02-08T22:50:22.811Z,52.70
2024-02-08T22:51:22.733Z,54.15
2024-02-08T22:52:22.753Z,58.75
2024-02-08T22:53:22.742Z,55.89
2024-02-08T22:54:22.802Z,51.10
2024-02-08T22:55:22.876Z,76.45
2024-02-08T22:56:22.928Z,54.85
2024-02-08T22:57:22.904Z,53.39
2024-02-08T22:58:24.130Z,56.20
2024-02-08T22:59:23.229Z,62.92
2024-02-08T23:00:23.125Z,68.44
2024-02-08T23:01:23.315Z,83.85
2024-02-08T23:02:23.163Z,56.51
2024-02-08T23:03:23.269Z,54.77
2024-02-08T23:04:23.482Z,65.24
2024-02-08T23:05:23.447Z,80.13
2024-02-08T23:06:23.440Z,65.76
2024-02-08T23:07:23.399Z,68.12
2024-02-08T23:08:23.405Z,53.98
2024-02-08T23:09:23.480Z,59.21
2024-02-08T23:10:23.546Z,65.31
2024-02-08T23:11:23.555Z,71.05
2024-02-08T23:12:23.582Z,66.29
2024-02-08T23:13:23.676Z,54.39
2024-02-08T23:14:23.731Z,50.12
2024-02-08T23:15:23.726Z,57.50
2024-02-08T23:16:23.804Z,69.49
2024-02-08T23:17:23.832Z,63.86
2024-02-08T23:18:24.575Z,66.03
2024-02-08T23:19:24.014Z,67.28
2024-02-08T23:20:23.966Z,69.18
2024-02-08T23:21:23.995Z,63.39
2024-02-08T23:22:26.974Z,50.11
2024-02-08T23:23:24.053Z,50.28
2024-02-08T23:24:24.302Z,54.67
2024-02-08T23:25:24.053Z,68.79
2024-02-08T23:26:24.067Z,58.82
2024-02-08T23:27:24.055Z,51.47
2024-02-08T23:28:24.100Z,61.53
2024-02-08T23:29:24.038Z,52.62
2024-02-08T23:30:24.038Z,52.94
2024-02-08T23:31:24.095Z,51.28
2024-02-08T23:32:24.038Z,60.92
2024-02-08T23:33:24.522Z,70.43
2024-02-08T23:34:24.228Z,65.73
2024-02-08T23:35:24.038Z,97.85
2024-02-08T23:36:24.069Z,89.44
2024-02-08T23:37:24.993Z,63.86
2024-02-08T23:38:24.100Z,55.52
2024-02-08T23:39:24.075Z,55.16
2024-02-08T23:40:24.114Z,57.44
2024-02-08T23:41:24.074Z,68.09
2024-02-08T23:42:24.063Z,50.01
2024-02-08T23:43:24.080Z,53.22
2024-02-08T23:44:24.095Z,54.53
2024-02-08T23:45:24.088Z,63.26
2024-02-08T23:46:24.134Z,71.60
2024-02-08T23:47:24.100Z,90.26
2024-02-08T23:48:24.145Z,51.26
2024-02-08T23:49:24.124Z,58.66
2024-02-08T23:50:24.074Z,63.64
2024-02-08T23:51:24.080Z,75.24
2024-02-08T23:52:24.124Z,52.77
2024-02-08T23:53:24.112Z,50.07
2024-02-08T23:54:24.106Z,62.29
2024-02-08T23:55:24.186Z,58.66
2024-02-08T23:56:24.121Z,58.40
2024-02-08T23:57:24.139Z,57.67
2024-02-08T23:58:24.132Z,52.90
2024-02-08T23:59:24.126Z,52.38
